createdAt,value
2018-11-25T00:00:55.369Z,21.00
2018-11-25T00:03:24.097Z,20.37
2018-11-25T00:05:51.805Z,19.83
2018-11-25T00:08:19.452Z,20.88
2018-11-25T00:10:47.145Z,18.48
2018-11-25T00:13:15.782Z,24.13
2018-11-25T00:15:42.696Z,22.70
2018-11-25T00:18:10.367Z,22.20
2018-11-25T00:20:38.034Z,20.93
2018-11-25T00:23:05.775Z,20.80
2018-11-25T00:25:35.133Z,23.00
2018-11-25T00:28:04.621Z,26.67
2018-11-25T00:30:32.414Z,22.90
2018-11-25T00:33:01.707Z,24.30
2018-11-25T00:35:29.404Z,25.43
2018-11-25T00:37:57.122Z,20.75
2018-11-25T00:40:24.815Z,22.25
2018-11-25T00:42:52.656Z,22.03
2018-11-25T00:45:20.380Z,26.40
2018-11-25T00:47:49.047Z,24.73
2018-11-25T00:50:16.842Z,27.80
2018-11-25T00:52:44.562Z,28.65
2018-11-25T00:55:14.823Z,28.50
2018-11-25T00:57:42.550Z,21.17
2018-11-25T01:00:14.584Z,26.60
2018-11-25T01:02:42.276Z,25.53
2018-11-25T01:05:10.558Z,26.42
2018-11-25T01:07:38.296Z,31.37
2018-11-25T01:10:12.268Z,30.00
2018-11-25T01:12:39.926Z,31.10
2018-11-25T01:15:13.124Z,27.45
2018-11-25T01:17:40.916Z,24.90
2018-11-25T01:20:11.491Z,21.20
2018-11-25T01:22:39.180Z,22.73
2018-11-25T01:25:10.118Z,21.27
2018-11-25T01:27:38.440Z,23.90
2018-11-25T01:30:11.132Z,18.10
2018-11-25T01:32:38.896Z,25.13
2018-11-25T01:35:09.131Z,25.27
2018-11-25T01:37:36.856Z,24.03
2018-11-25T01:40:14.376Z,26.20
2018-11-25T01:42:42.128Z,21.80
2018-11-25T01:45:13.121Z,22.17
2018-11-25T01:47:40.891Z,23.83
2018-11-25T01:50:11.381Z,23.23
2018-11-25T01:52:39.185Z,25.37
2018-11-25T01:55:10.862Z,20.07
2018-11-25T01:57:38.628Z,26.10
2018-11-25T02:00:21.416Z,18.33
2018-11-25T02:02:49.310Z,19.60
2018-11-25T02:05:17.120Z,24.20
2018-11-25T02:07:44.855Z,22.73
2018-11-25T02:10:14.233Z,25.08
2018-11-25T02:12:41.952Z,23.87
2018-11-25T02:15:11.217Z,24.50
2018-11-25T02:17:38.925Z,26.57
2018-11-25T02:20:16.778Z,31.70
2018-11-25T02:22:44.458Z,34.40
2018-11-25T02:25:16.530Z,26.50
2018-11-25T02:27:44.276Z,26.03
2018-11-25T02:30:13.936Z,26.47
2018-11-25T02:32:41.647Z,24.80
2018-11-25T02:35:10.786Z,24.92
2018-11-25T02:37:38.498Z,26.70
2018-11-25T02:40:11.638Z,24.72
2018-11-25T02:42:39.284Z,29.80
2018-11-25T02:45:15.772Z,26.42
2018-11-25T02:47:43.481Z,23.63
2018-11-25T02:50:31.863Z,25.12
2018-11-25T02:53:02.164Z,26.23
2018-11-25T02:55:29.918Z,33.00
2018-11-25T02:57:57.643Z,30.13
2018-11-25T03:00:25.381Z,24.87
2018-11-25T03:02:53.114Z,23.85
2018-11-25T03:05:20.833Z,25.33
2018-11-25T03:07:48.539Z,25.07
2018-11-25T03:10:16.296Z,25.80
2018-11-25T03:12:43.986Z,23.45
2018-11-25T03:15:14.964Z,26.33
2018-11-25T03:17:42.733Z,24.13
2018-11-25T03:20:12.495Z,24.37
2018-11-25T03:22:40.157Z,26.17
2018-11-25T03:25:18.347Z,26.33
2018-11-25T03:27:46.102Z,29.30
2018-11-25T03:30:18.697Z,24.37
2018-11-25T03:32:47.820Z,21.23
2018-11-25T03:35:15.588Z,20.70
2018-11-25T03:37:43.277Z,21.73
2018-11-25T03:40:12.841Z,18.75
2018-11-25T03:42:40.567Z,19.17
2018-11-25T03:45:17.777Z,24.47
2018-11-25T03:47:45.604Z,21.63
2018-11-25T03:50:14.219Z,24.47
2018-11-25T03:52:41.981Z,27.63
2018-11-25T03:55:11.107Z,22.37
2018-11-25T03:57:38.817Z,22.77
2018-11-25T04:00:14.091Z,23.40
2018-11-25T04:02:41.864Z,24.80
2018-11-25T04:05:11.181Z,26.17
2018-11-25T04:07:38.836Z,28.50
2018-11-25T04:10:09.175Z,27.48
2018-11-25T04:12:36.837Z,24.13
2018-11-25T04:15:07.720Z,27.35
2018-11-25T04:17:35.430Z,25.10
2018-11-25T04:20:03.437Z,24.55
2018-11-25T04:22:31.165Z,28.47
2018-11-25T04:24:58.865Z,24.82
2018-11-25T04:27:26.620Z,32.08
2018-11-25T04:29:54.320Z,23.50
2018-11-25T04:32:22.010Z,24.27
2018-11-25T04:34:49.672Z,26.60
2018-11-25T04:37:17.375Z,25.65
2018-11-25T04:39:45.040Z,24.87
2018-11-25T04:42:12.699Z,28.60
2018-11-25T04:44:40.422Z,27.70
2018-11-25T04:47:08.192Z,28.87
2018-11-25T04:49:35.882Z,26.37
2018-11-25T04:52:03.689Z,24.07
2018-11-25T04:54:31.396Z,29.15
2018-11-25T04:56:59.168Z,25.77
2018-11-25T04:59:26.845Z,25.40
2018-11-25T05:01:54.575Z,26.40
2018-11-25T05:04:22.231Z,25.80
2018-11-25T05:06:50.013Z,26.15
2018-11-25T05:09:17.703Z,28.25
2018-11-25T05:11:45.395Z,25.60
2018-11-25T05:14:13.628Z,30.30
2018-11-25T05:16:41.386Z,28.60
2018-11-25T05:19:09.033Z,28.63
2018-11-25T05:21:36.731Z,23.47
2018-11-25T05:24:05.105Z,26.50
2018-11-25T05:26:32.761Z,22.00
2018-11-25T05:29:00.411Z,24.10
2018-11-25T05:31:28.300Z,24.67
2018-11-25T05:33:56.062Z,22.48
2018-11-25T05:36:23.727Z,21.80
2018-11-25T05:38:51.420Z,23.65
2018-11-25T05:41:19.185Z,22.90
2018-11-25T05:43:46.891Z,23.57
2018-11-25T05:46:14.660Z,24.23
2018-11-25T05:48:42.373Z,21.90
2018-11-25T05:51:10.038Z,24.97
2018-11-25T05:53:37.805Z,32.23
2018-11-25T05:56:05.589Z,23.83
2018-11-25T05:58:33.272Z,26.13
2018-11-25T06:01:00.935Z,24.27
2018-11-25T06:03:28.615Z,21.67
2018-11-25T06:05:56.306Z,24.63
2018-11-25T06:08:24.030Z,24.67
2018-11-25T06:10:51.926Z,27.37
2018-11-25T06:13:19.687Z,29.37
2018-11-25T06:15:47.423Z,32.88
2018-11-25T06:18:15.189Z,28.07
2018-11-25T06:20:42.905Z,25.03
2018-11-25T06:23:10.572Z,28.80
2018-11-25T06:25:38.260Z,27.77
2018-11-25T06:28:06.031Z,31.50
2018-11-25T06:30:33.704Z,30.65
2018-11-25T06:33:01.415Z,29.40
2018-11-25T06:35:29.117Z,30.63
2018-11-25T06:37:57.653Z,32.40
2018-11-25T06:40:26.348Z,26.60
2018-11-25T06:42:54.603Z,29.37
2018-11-25T06:45:25.778Z,32.38
2018-11-25T06:47:54.774Z,28.30
2018-11-25T06:50:22.474Z,29.70
2018-11-25T06:52:50.267Z,27.07
2018-11-25T06:55:18.932Z,26.40
2018-11-25T06:57:47.249Z,28.50
2018-11-25T07:00:17.374Z,26.63
2018-11-25T07:02:45.183Z,29.07
2018-11-25T07:05:13.577Z,33.17
2018-11-25T07:07:42.274Z,26.53
2018-11-25T07:10:13.248Z,25.50
2018-11-25T07:12:41.830Z,26.30
2018-11-25T07:15:11.776Z,26.40
2018-11-25T07:17:40.603Z,24.97
2018-11-25T07:20:11.113Z,28.27
2018-11-25T07:22:38.848Z,27.57
2018-11-25T07:25:18.094Z,24.00
2018-11-25T07:27:46.954Z,28.07
2018-11-25T07:30:20.361Z,31.70
2018-11-25T07:32:48.757Z,26.47
2018-11-25T07:35:16.508Z,25.47
2018-11-25T07:37:44.244Z,29.00
2018-11-25T07:40:13.606Z,30.82
2018-11-25T07:42:41.382Z,33.00
2018-11-25T07:45:12.302Z,26.00
2018-11-25T07:47:40.022Z,27.10
2018-11-25T07:50:10.447Z,31.68
2018-11-25T07:52:39.036Z,30.67
2018-11-25T07:55:14.012Z,28.77
2018-11-25T07:57:42.039Z,32.43
2018-11-25T08:00:12.906Z,29.00
2018-11-25T08:02:41.683Z,35.20
2018-11-25T08:05:09.980Z,31.77
2018-11-25T08:07:37.703Z,30.53
2018-11-25T08:10:09.193Z,29.92
2018-11-25T08:12:36.984Z,31.00
2018-11-25T08:15:06.867Z,27.37
2018-11-25T08:17:34.526Z,28.33
2018-11-25T08:20:02.276Z,29.18
2018-11-25T08:22:29.953Z,29.18
2018-11-25T08:24:57.636Z,28.03
2018-11-25T08:27:25.329Z,33.83
2018-11-25T08:29:53.059Z,30.00
2018-11-25T08:32:20.805Z,34.25
2018-11-25T08:34:48.453Z,33.98
2018-11-25T08:37:16.190Z,25.33
2018-11-25T08:39:44.421Z,32.03
2018-11-25T08:42:12.164Z,34.33
2018-11-25T08:44:40.278Z,31.40
2018-11-25T08:47:08.266Z,33.40
2018-11-25T08:49:36.253Z,29.40
2018-11-25T08:52:04.185Z,32.28
2018-11-25T08:54:31.902Z,34.67
2018-11-25T08:57:00.362Z,30.00
2018-11-25T08:59:28.057Z,30.50
2018-11-25T09:01:55.729Z,34.50
2018-11-25T09:04:23.486Z,33.67
2018-11-25T09:06:51.233Z,32.13
2018-11-25T09:09:18.902Z,30.97
2018-11-25T09:11:46.679Z,28.00
2018-11-25T09:14:14.527Z,32.13
2018-11-25T09:16:42.310Z,35.23
2018-11-25T09:19:10.038Z,31.77
2018-11-25T09:21:37.753Z,36.67
2018-11-25T09:24:06.313Z,33.25
2018-11-25T09:26:34.092Z,34.17
2018-11-25T09:29:01.891Z,29.13
2018-11-25T09:31:29.576Z,35.65
2018-11-25T09:33:57.346Z,31.90
2018-11-25T09:36:25.010Z,33.40
2018-11-25T09:38:53.208Z,36.77
2018-11-25T09:41:21.156Z,33.80
2018-11-25T09:43:48.833Z,32.17
2018-11-25T09:46:16.541Z,33.63
2018-11-25T09:48:44.309Z,32.73
2018-11-25T09:51:12.121Z,33.10
2018-11-25T09:53:39.873Z,32.63
2018-11-25T09:56:07.779Z,39.08
2018-11-25T09:58:35.569Z,34.70
2018-11-25T10:01:03.633Z,36.03
2018-11-25T10:03:31.331Z,29.87
2018-11-25T10:05:59.185Z,33.00
2018-11-25T10:08:27.053Z,34.45
2018-11-25T10:10:55.041Z,35.97
2018-11-25T10:13:22.929Z,35.73
2018-11-25T10:15:50.694Z,33.55
2018-11-25T10:18:18.469Z,29.53
2018-11-25T10:20:46.736Z,39.87
2018-11-25T10:23:14.466Z,40.30
2018-11-25T10:25:42.213Z,28.60
2018-11-25T10:28:09.952Z,34.13
2018-11-25T10:30:37.705Z,32.27
2018-11-25T10:33:08.268Z,29.60
2018-11-25T10:35:35.993Z,33.57
2018-11-25T10:38:04.493Z,30.85
2018-11-25T10:40:32.225Z,31.27
2018-11-25T10:42:59.881Z,26.90
2018-11-25T10:45:28.124Z,31.70
2018-11-25T10:47:56.983Z,28.20
2018-11-25T10:50:24.721Z,30.60
2018-11-25T10:52:52.479Z,29.82
2018-11-25T10:55:21.221Z,29.92
2018-11-25T10:57:50.666Z,29.03
2018-11-25T11:00:30.008Z,33.13
2018-11-25T11:03:03.540Z,32.17
2018-11-25T11:05:37.031Z,24.70
2018-11-25T11:08:05.513Z,29.40
2018-11-25T11:10:33.219Z,28.63
2018-11-25T11:13:00.893Z,26.35
2018-11-25T11:15:28.662Z,27.27
2018-11-25T11:17:56.404Z,29.53
2018-11-25T11:20:24.096Z,27.00
2018-11-25T11:22:51.785Z,30.97
2018-11-25T11:25:19.499Z,29.23
2018-11-25T11:27:47.317Z,29.42
2018-11-25T11:30:15.005Z,26.75
2018-11-25T11:32:45.076Z,28.77
2018-11-25T11:35:12.922Z,25.33
2018-11-25T11:37:40.696Z,27.33
2018-11-25T11:40:10.657Z,28.30
2018-11-25T11:42:38.444Z,24.70
2018-11-25T11:45:14.573Z,28.63
2018-11-25T11:47:43.404Z,29.70
2018-11-25T11:50:14.908Z,27.50
2018-11-25T11:52:42.642Z,28.10
2018-11-25T11:55:12.784Z,32.05
2018-11-25T11:57:42.895Z,28.33
2018-11-25T12:00:41.784Z,35.57
2018-11-25T12:03:09.560Z,28.83
2018-11-25T12:05:38.228Z,29.53
2018-11-25T12:08:13.177Z,32.33
2018-11-25T12:10:40.932Z,32.07
2018-11-25T12:13:09.171Z,30.80
2018-11-25T12:15:37.793Z,30.30
2018-11-25T12:18:07.132Z,28.77
2018-11-25T12:20:34.941Z,28.43
2018-11-25T12:23:04.108Z,30.10
2018-11-25T12:25:33.136Z,32.73
2018-11-25T12:28:00.888Z,28.27
2018-11-25T12:30:28.722Z,30.13
2018-11-25T12:32:57.103Z,28.17
2018-11-25T12:35:25.591Z,25.97
2018-11-25T12:37:54.350Z,29.13
2018-11-25T12:40:22.678Z,30.67
2018-11-25T12:42:54.248Z,32.60
2018-11-25T12:45:22.272Z,32.67
2018-11-25T12:47:50.094Z,33.67
2018-11-25T12:50:22.124Z,33.10
2018-11-25T12:52:52.075Z,30.13
2018-11-25T12:55:21.533Z,32.10
2018-11-25T12:57:49.921Z,30.80
2018-11-25T13:00:22.529Z,32.70
2018-11-25T13:02:50.747Z,26.27
2018-11-25T13:05:18.475Z,27.97
2018-11-25T13:07:46.830Z,28.32
2018-11-25T13:10:14.620Z,26.73
2018-11-25T13:12:42.982Z,28.80
2018-11-25T13:15:10.714Z,32.40
2018-11-25T13:17:38.428Z,29.85
2018-11-25T13:20:10.391Z,26.82
2018-11-25T13:22:39.548Z,29.00
2018-11-25T13:25:10.172Z,26.63
2018-11-25T13:27:38.815Z,25.10
2018-11-25T13:30:21.910Z,25.80
2018-11-25T13:32:52.008Z,27.97
2018-11-25T13:35:19.757Z,26.00
2018-11-25T13:37:47.539Z,28.10
2018-11-25T13:40:16.987Z,29.48
2018-11-25T13:42:44.714Z,27.10
2018-11-25T13:45:12.603Z,28.70
2018-11-25T13:47:41.340Z,26.68
2018-11-25T13:50:11.825Z,26.50
2018-11-25T13:52:39.599Z,24.10
2018-11-25T13:55:18.099Z,24.47
2018-11-25T13:57:47.320Z,27.17
2018-11-25T14:00:30.466Z,28.83
2018-11-25T14:02:59.624Z,30.83
2018-11-25T14:05:27.381Z,30.07
2018-11-25T14:07:55.326Z,30.47
2018-11-25T14:10:28.860Z,30.23
2018-11-25T14:12:56.571Z,31.30
2018-11-25T14:15:25.037Z,27.45
2018-11-25T14:17:54.118Z,32.23
2018-11-25T14:20:21.894Z,29.67
2018-11-25T14:22:49.653Z,27.50
2018-11-25T14:25:21.248Z,29.50
2018-11-25T14:27:52.017Z,29.63
2018-11-25T14:30:23.221Z,29.50
2018-11-25T14:32:51.847Z,32.10
2018-11-25T14:35:19.543Z,30.13
2018-11-25T14:37:47.349Z,30.77
2018-11-25T14:40:18.411Z,30.25
2018-11-25T14:42:46.306Z,31.80
2018-11-25T14:45:17.958Z,28.77
2018-11-25T14:47:46.480Z,27.33
2018-11-25T14:50:17.913Z,27.20
2018-11-25T14:52:49.041Z,31.40
2018-11-25T14:55:17.279Z,30.03
2018-11-25T14:57:45.146Z,29.13
2018-11-25T15:00:16.055Z,30.57
2018-11-25T15:02:45.800Z,30.07
2018-11-25T15:05:46.949Z,29.43
2018-11-25T15:08:22.499Z,30.13
2018-11-25T15:10:50.374Z,28.70
2018-11-25T15:13:19.402Z,25.97
2018-11-25T15:15:47.201Z,28.53
2018-11-25T15:18:15.260Z,31.90
2018-11-25T15:20:43.126Z,28.47
2018-11-25T15:23:13.383Z,23.30
2018-11-25T15:25:46.626Z,25.87
2018-11-25T15:28:14.779Z,27.23
2018-11-25T15:30:42.555Z,31.40
2018-11-25T15:33:10.288Z,23.60
2018-11-25T15:35:38.288Z,23.95
2018-11-25T15:38:06.765Z,26.30
2018-11-25T15:40:35.637Z,23.80
2018-11-25T15:43:03.492Z,25.70
2018-11-25T15:45:31.766Z,26.33
2018-11-25T15:48:02.294Z,22.97
2018-11-25T15:50:30.963Z,25.70
2018-11-25T15:52:58.954Z,26.63
2018-11-25T15:55:27.628Z,24.70
2018-11-25T15:57:56.328Z,27.35
2018-11-25T16:00:24.712Z,26.33
2018-11-25T16:02:52.650Z,24.90
2018-11-25T16:05:27.539Z,27.03
2018-11-25T16:07:55.479Z,27.77
2018-11-25T16:10:23.206Z,29.23
2018-11-25T16:12:52.151Z,30.53
2018-11-25T16:15:22.050Z,31.77
2018-11-25T16:17:50.332Z,31.47
2018-11-25T16:20:24.289Z,26.70
2018-11-25T16:24:00.620Z,28.00
2018-11-25T16:26:32.912Z,30.67
2018-11-25T16:29:07.152Z,30.80
2018-11-25T16:31:34.957Z,22.97
2018-11-25T16:34:03.025Z,26.30
2018-11-25T16:36:30.751Z,34.90
2018-11-25T16:38:58.628Z,28.10
2018-11-25T16:41:26.857Z,30.20
2018-11-25T16:43:54.936Z,32.50
2018-11-25T16:46:23.062Z,29.80
2018-11-25T16:48:50.939Z,28.77
2018-11-25T16:51:18.619Z,26.37
2018-11-25T16:53:46.341Z,31.48
2018-11-25T16:56:15.071Z,31.48
2018-11-25T16:58:43.066Z,30.70
2018-11-25T17:01:10.872Z,32.77
2018-11-25T17:03:38.593Z,38.17
2018-11-25T17:06:07.831Z,31.62
2018-11-25T17:08:39.020Z,30.87
2018-11-25T17:11:07.571Z,30.80
2018-11-25T17:13:36.207Z,34.10
2018-11-25T17:16:04.754Z,33.07
2018-11-25T17:18:32.454Z,34.87
2018-11-25T17:21:00.207Z,34.45
2018-11-25T17:23:27.875Z,31.57
2018-11-25T17:25:55.670Z,34.20
2018-11-25T17:28:23.717Z,34.17
2018-11-25T17:30:54.837Z,34.77
2018-11-25T17:33:22.624Z,32.17
2018-11-25T17:35:50.449Z,32.30
2018-11-25T17:38:18.159Z,38.15
2018-11-25T17:40:46.109Z,37.73
2018-11-25T17:43:20.550Z,36.83
2018-11-25T17:45:48.664Z,40.77
2018-11-25T17:48:16.452Z,34.80
2018-11-25T17:50:45.738Z,36.63
2018-11-25T17:53:20.459Z,35.00
2018-11-25T17:55:41.752Z,37.77
2018-11-25T17:58:09.798Z,38.37
2018-11-25T18:00:49.069Z,36.50
2018-11-25T18:03:22.129Z,37.07
2018-11-25T18:05:50.192Z,36.87
2018-11-25T18:08:18.086Z,36.13
2018-11-25T18:10:45.887Z,38.67
2018-11-25T18:13:15.457Z,42.20
2018-11-25T18:15:43.974Z,47.20
2018-11-25T18:18:18.788Z,41.13
2018-11-25T18:20:51.331Z,64.53
2018-11-25T18:23:19.119Z,61.93
2018-11-25T18:25:46.825Z,52.20
2018-11-25T18:28:16.430Z,47.83
2018-11-25T18:30:44.985Z,46.97
2018-11-25T18:33:13.026Z,49.30
2018-11-25T18:35:41.562Z,45.27
2018-11-25T18:38:09.270Z,38.83
2018-11-25T18:40:37.161Z,46.13
2018-11-25T18:43:06.313Z,42.62
2018-11-25T18:45:35.089Z,41.77
2018-11-25T18:48:02.913Z,44.43
2018-11-25T18:50:39.154Z,41.27
2018-11-25T18:53:08.833Z,53.53
2018-11-25T18:55:35.250Z,41.50
2018-11-25T18:58:03.008Z,42.27
2018-11-25T19:02:43.054Z,43.60
2018-11-25T19:05:10.938Z,42.53
2018-11-25T19:07:38.692Z,41.93
2018-11-25T19:10:16.122Z,45.67
2018-11-25T19:12:44.530Z,43.27
2018-11-25T19:15:17.096Z,47.17
2018-11-25T19:17:44.910Z,44.63
2018-11-25T19:20:26.895Z,35.07
2018-11-25T19:22:56.034Z,37.93
2018-11-25T19:25:24.754Z,41.80
2018-11-25T19:27:53.910Z,41.20
2018-11-25T19:30:26.315Z,40.40
2018-11-25T19:32:50.411Z,44.33
2018-11-25T19:35:20.968Z,40.90
2018-11-25T19:37:50.458Z,45.67
2018-11-25T19:41:10.768Z,44.93
2018-11-25T19:43:39.450Z,41.27
2018-11-25T19:46:08.404Z,40.10
2018-11-25T19:48:37.351Z,47.60
2018-11-25T19:51:05.571Z,43.07
2018-11-25T19:53:33.337Z,47.90
2018-11-25T19:56:01.848Z,47.10
2018-11-25T19:58:30.363Z,41.47
2018-11-25T20:00:58.934Z,43.00
2018-11-25T20:03:26.651Z,47.80
2018-11-25T20:05:57.440Z,44.55
2018-11-25T20:08:26.221Z,55.30
2018-11-25T20:10:55.291Z,51.73
2018-11-25T20:13:23.166Z,40.57
2018-11-25T20:15:52.120Z,43.27
2018-11-25T20:18:19.883Z,44.97
2018-11-25T20:20:53.898Z,49.10
2018-11-25T20:23:21.683Z,46.70
2018-11-25T20:25:49.883Z,40.80
2018-11-25T20:28:17.682Z,51.10
2018-11-25T20:30:45.422Z,45.10
2018-11-25T20:33:19.066Z,53.02
2018-11-25T20:35:47.389Z,52.53
2018-11-25T20:38:21.014Z,51.60
2018-11-25T20:40:50.776Z,50.40
2018-11-25T20:43:18.904Z,49.63
2018-11-25T20:45:53.599Z,61.67
2018-11-25T20:48:22.065Z,59.80
2018-11-25T20:50:50.527Z,56.10
2018-11-25T20:53:27.660Z,53.53
2018-11-25T20:56:02.703Z,58.23
2018-11-25T20:58:30.493Z,59.03
2018-11-25T21:00:58.254Z,54.90
2018-11-25T21:03:26.696Z,56.13
2018-11-25T21:05:54.443Z,47.70
2018-11-25T21:08:22.267Z,56.45
2018-11-25T21:10:50.654Z,51.13
2018-11-25T21:13:19.427Z,48.57
2018-11-25T21:15:48.052Z,42.93
2018-11-25T21:18:16.994Z,46.63
2018-11-25T21:20:51.113Z,50.30
2018-11-25T21:23:13.134Z,45.05
2018-11-25T21:25:41.735Z,46.70
2018-11-25T21:28:09.415Z,52.67
2018-11-25T21:30:37.188Z,45.12
2018-11-25T21:33:05.750Z,46.05
2018-11-25T21:35:33.457Z,49.87
2018-11-25T21:38:01.220Z,46.70
2018-11-25T21:40:29.625Z,50.67
2018-11-25T21:42:57.517Z,47.10
2018-11-25T21:45:26.393Z,47.80
2018-11-25T21:47:54.580Z,49.63
2018-11-25T21:50:25.010Z,44.20
2018-11-25T21:52:53.184Z,46.03
2018-11-25T21:55:21.028Z,46.83
2018-11-25T21:57:48.795Z,48.60
2018-11-25T22:00:24.439Z,48.55
2018-11-25T22:02:52.994Z,47.60
2018-11-25T22:05:24.711Z,41.67
2018-11-25T22:07:48.694Z,46.43
2018-11-25T22:10:17.679Z,45.23
2018-11-25T22:12:45.836Z,45.03
2018-11-25T22:15:15.297Z,43.10
2018-11-25T22:17:43.028Z,45.70
2018-11-25T22:20:13.193Z,45.30
2018-11-25T22:22:41.700Z,44.40
2018-11-25T22:25:11.131Z,45.07
2018-11-25T22:27:39.870Z,39.07
2018-11-25T22:30:14.174Z,50.03
2018-11-25T22:32:41.976Z,51.50
2018-11-25T22:35:13.054Z,43.07
2018-11-25T22:37:41.997Z,46.40
2018-11-25T22:40:10.777Z,45.20
2018-11-25T22:42:39.285Z,48.50
2018-11-25T22:45:10.042Z,50.60
2018-11-25T22:47:37.764Z,53.50
2018-11-25T22:50:08.004Z,48.33
2018-11-25T22:52:35.729Z,47.80
2018-11-25T22:55:03.786Z,48.05
2018-11-25T22:57:31.448Z,53.90
2018-11-25T22:59:59.195Z,49.90
2018-11-25T23:02:26.896Z,47.95
2018-11-25T23:05:12.043Z,50.73
2018-11-25T23:07:39.780Z,46.93
2018-11-25T23:10:07.500Z,48.53
2018-11-25T23:12:35.260Z,45.25
2018-11-25T23:15:02.983Z,52.78
2018-11-25T23:17:30.689Z,51.40
2018-11-25T23:19:58.466Z,44.20
2018-11-25T23:22:26.124Z,50.20
2018-11-25T23:24:53.841Z,52.43
2018-11-25T23:27:22.368Z,54.45
2018-11-25T23:29:50.074Z,52.10
2018-11-25T23:32:17.727Z,54.03
2018-11-25T23:34:45.374Z,51.68
2018-11-25T23:37:13.083Z,49.73
2018-11-25T23:39:40.725Z,50.23
2018-11-25T23:42:08.474Z,45.73
2018-11-25T23:44:36.306Z,48.00
2018-11-25T23:47:03.939Z,50.48
2018-11-25T23:49:31.621Z,63.33
2018-11-25T23:51:59.312Z,55.33
2018-11-25T23:54:27.102Z,53.75
2018-11-25T23:56:54.817Z,56.40
2018-11-25T23:59:22.546Z,52.97
